sensor_id;sensor_type;location;lat;lon;timestamp;temperature;humidity
22852;DHT22;11592;45.460;9.240;2023-07-20T00:00:06;28.90;99.90
22852;DHT22;11592;45.460;9.240;2023-07-20T00:02:33;28.90;99.90
22852;DHT22;11592;45.460;9.240;2023-07-20T00:05:00;28.80;99.90
22852;DHT22;11592;45.460;9.240;2023-07-20T00:07:27;28.70;99.90
22852;DHT22;11592;45.460;9.240;2023-07-20T00:09:55;28.50;99.90
22852;DHT22;11592;45.460;9.240;2023-07-20T00:12:22;28.30;99.90
22852;DHT22;11592;45.460;9.240;2023-07-20T00:14:48;28.40;99.90
22852;DHT22;11592;45.460;9.240;2023-07-20T00:17:16;28.40;99.90
22852;DHT22;11592;45.460;9.240;2023-07-20T00:19:42;28.30;99.90
22852;DHT22;11592;45.460;9.240;2023-07-20T00:22:09;28.30;99.90
22852;DHT22;11592;45.460;9.240;2023-07-20T00:24:36;28.20;99.90
22852;DHT22;11592;45.460;9.240;2023-07-20T00:27:03;28.10;99.90
22852;DHT22;11592;45.460;9.240;2023-07-20T00:29:30;28.10;99.90
22852;DHT22;11592;45.460;9.240;2023-07-20T00:31:57;28.10;99.90
22852;DHT22;11592;45.460;9.240;2023-07-20T00:34:25;27.80;99.90
22852;DHT22;11592;45.460;9.240;2023-07-20T00:36:51;27.60;99.90
22852;DHT22;11592;45.460;9.240;2023-07-20T00:39:18;27.60;99.90
22852;DHT22;11592;45.460;9.240;2023-07-20T00:41:45;27.50;99.90
22852;DHT22;11592;45.460;9.240;2023-07-20T00:44:12;27.40;99.90
22852;DHT22;11592;45.460;9.240;2023-07-20T00:46:39;27.40;99.90
22852;DHT22;11592;45.460;9.240;2023-07-20T00:49:08;27.30;99.90
22852;DHT22;11592;45.460;9.240;2023-07-20T00:51:35;27.10;99.90
22852;DHT22;11592;45.460;9.240;2023-07-20T00:54:02;27.00;99.90
22852;DHT22;11592;45.460;9.240;2023-07-20T00:56:29;26.90;99.90
22852;DHT22;11592;45.460;9.240;2023-07-20T00:58:56;26.90;99.90
22852;DHT22;11592;45.460;9.240;2023-07-20T01:01:23;26.80;99.90
22852;DHT22;11592;45.460;9.240;2023-07-20T01:03:50;26.70;99.90
22852;DHT22;11592;45.460;9.240;2023-07-20T01:14:31;26.50;99.90
22852;DHT22;11592;45.460;9.240;2023-07-20T01:16:59;26.40;99.90
22852;DHT22;11592;45.460;9.240;2023-07-20T01:19:26;26.40;99.90
22852;DHT22;11592;45.460;9.240;2023-07-20T01:32:47;26.00;99.90
22852;DHT22;11592;45.460;9.240;2023-07-20T01:35:16;26.00;99.90
22852;DHT22;11592;45.460;9.240;2023-07-20T01:37:46;25.90;99.90
22852;DHT22;11592;45.460;9.240;2023-07-20T01:40:15;25.70;99.90
22852;DHT22;11592;45.460;9.240;2023-07-20T01:42:48;25.70;99.90
22852;DHT22;11592;45.460;9.240;2023-07-20T01:45:15;25.60;99.90
22852;DHT22;11592;45.460;9.240;2023-07-20T01:47:42;25.50;99.90
22852;DHT22;11592;45.460;9.240;2023-07-20T01:50:09;25.40;99.90
22852;DHT22;11592;45.460;9.240;2023-07-20T01:52:36;25.40;99.90
22852;DHT22;11592;45.460;9.240;2023-07-20T01:55:03;25.30;99.90
22852;DHT22;11592;45.460;9.240;2023-07-20T01:57:31;25.10;99.90
22852;DHT22;11592;45.460;9.240;2023-07-20T01:59:58;25.10;99.90
22852;DHT22;11592;45.460;9.240;2023-07-20T02:02:26;25.10;99.90
22852;DHT22;11592;45.460;9.240;2023-07-20T02:04:54;25.20;99.90
22852;DHT22;11592;45.460;9.240;2023-07-20T02:07:21;25.20;99.90
22852;DHT22;11592;45.460;9.240;2023-07-20T02:09:48;25.10;99.90
22852;DHT22;11592;45.460;9.240;2023-07-20T02:12:15;25.20;99.90
22852;DHT22;11592;45.460;9.240;2023-07-20T02:14:42;25.20;99.90
22852;DHT22;11592;45.460;9.240;2023-07-20T02:17:09;25.00;99.90
22852;DHT22;11592;45.460;9.240;2023-07-20T02:19:37;25.00;99.90
22852;DHT22;11592;45.460;9.240;2023-07-20T02:22:05;25.00;99.90
22852;DHT22;11592;45.460;9.240;2023-07-20T02:24:33;25.00;99.90
22852;DHT22;11592;45.460;9.240;2023-07-20T02:27:00;25.10;99.90
22852;DHT22;11592;45.460;9.240;2023-07-20T02:29:27;25.10;99.90
22852;DHT22;11592;45.460;9.240;2023-07-20T02:31:54;25.10;99.90
22852;DHT22;11592;45.460;9.240;2023-07-20T02:34:21;25.00;99.90
22852;DHT22;11592;45.460;9.240;2023-07-20T02:36:48;25.00;99.90
22852;DHT22;11592;45.460;9.240;2023-07-20T02:39:15;24.90;99.90
22852;DHT22;11592;45.460;9.240;2023-07-20T02:41:41;24.90;99.90
22852;DHT22;11592;45.460;9.240;2023-07-20T02:44:08;24.90;99.90
22852;DHT22;11592;45.460;9.240;2023-07-20T02:46:35;24.80;99.90
22852;DHT22;11592;45.460;9.240;2023-07-20T02:49:02;24.80;99.90
22852;DHT22;11592;45.460;9.240;2023-07-20T02:51:29;24.70;99.90
22852;DHT22;11592;45.460;9.240;2023-07-20T02:53:56;24.80;99.90
22852;DHT22;11592;45.460;9.240;2023-07-20T02:56:23;24.90;99.90
22852;DHT22;11592;45.460;9.240;2023-07-20T02:58:51;24.70;99.90
22852;DHT22;11592;45.460;9.240;2023-07-20T03:01:17;24.60;99.90
22852;DHT22;11592;45.460;9.240;2023-07-20T03:03:44;24.70;99.90
22852;DHT22;11592;45.460;9.240;2023-07-20T03:06:15;24.60;99.90
22852;DHT22;11592;45.460;9.240;2023-07-20T03:08:43;24.70;99.90
22852;DHT22;11592;45.460;9.240;2023-07-20T03:11:15;24.70;99.90
22852;DHT22;11592;45.460;9.240;2023-07-20T03:13:43;24.60;99.90
22852;DHT22;11592;45.460;9.240;2023-07-20T03:16:11;24.60;99.90
22852;DHT22;11592;45.460;9.240;2023-07-20T03:18:38;24.60;99.90
22852;DHT22;11592;45.460;9.240;2023-07-20T03:21:06;24.40;99.90
22852;DHT22;11592;45.460;9.240;2023-07-20T03:23:33;24.50;99.90
22852;DHT22;11592;45.460;9.240;2023-07-20T03:26:01;24.40;99.90
22852;DHT22;11592;45.460;9.240;2023-07-20T03:28:27;24.50;99.90
22852;DHT22;11592;45.460;9.240;2023-07-20T03:30:57;24.90;99.90
22852;DHT22;11592;45.460;9.240;2023-07-20T03:33:28;24.60;99.90
22852;DHT22;11592;45.460;9.240;2023-07-20T03:35:56;24.60;99.90
22852;DHT22;11592;45.460;9.240;2023-07-20T03:38:24;24.50;99.90
22852;DHT22;11592;45.460;9.240;2023-07-20T03:40:58;24.50;99.90
22852;DHT22;11592;45.460;9.240;2023-07-20T03:43:27;24.50;99.90
22852;DHT22;11592;45.460;9.240;2023-07-20T03:45:54;24.40;99.90
22852;DHT22;11592;45.460;9.240;2023-07-20T03:48:23;24.50;99.90
22852;DHT22;11592;45.460;9.240;2023-07-20T03:50:51;24.50;99.90
22852;DHT22;11592;45.460;9.240;2023-07-20T03:53:19;24.50;99.90
22852;DHT22;11592;45.460;9.240;2023-07-20T03:55:50;24.50;99.90
22852;DHT22;11592;45.460;9.240;2023-07-20T03:58:19;24.50;99.90
22852;DHT22;11592;45.460;9.240;2023-07-20T04:00:47;24.40;99.90
22852;DHT22;11592;45.460;9.240;2023-07-20T04:03:14;24.40;99.90
22852;DHT22;11592;45.460;9.240;2023-07-20T04:05:42;24.50;99.90
22852;DHT22;11592;45.460;9.240;2023-07-20T04:08:09;24.50;99.90
22852;DHT22;11592;45.460;9.240;2023-07-20T04:10:38;24.50;99.90
22852;DHT22;11592;45.460;9.240;2023-07-20T04:13:05;24.60;99.90
22852;DHT22;11592;45.460;9.240;2023-07-20T04:15:32;24.60;99.90
22852;DHT22;11592;45.460;9.240;2023-07-20T04:18:00;24.60;99.90
22852;DHT22;11592;45.460;9.240;2023-07-20T04:20:27;24.40;99.90
22852;DHT22;11592;45.460;9.240;2023-07-20T04:22:54;24.40;99.90
22852;DHT22;11592;45.460;9.240;2023-07-20T04:25:21;24.50;99.90
22852;DHT22;11592;45.460;9.240;2023-07-20T04:27:48;24.50;99.90
22852;DHT22;11592;45.460;9.240;2023-07-20T04:30:17;24.60;99.90
22852;DHT22;11592;45.460;9.240;2023-07-20T04:32:46;24.60;99.90
22852;DHT22;11592;45.460;9.240;2023-07-20T04:35:51;24.50;99.90
22852;DHT22;11592;45.460;9.240;2023-07-20T04:38:19;24.60;99.90
22852;DHT22;11592;45.460;9.240;2023-07-20T04:40:48;24.60;99.90
22852;DHT22;11592;45.460;9.240;2023-07-20T04:43:16;24.60;99.90
22852;DHT22;11592;45.460;9.240;2023-07-20T04:45:43;24.60;99.90
22852;DHT22;11592;45.460;9.240;2023-07-20T04:48:12;24.60;99.90
22852;DHT22;11592;45.460;9.240;2023-07-20T04:50:43;24.60;99.90
22852;DHT22;11592;45.460;9.240;2023-07-20T04:53:12;24.70;99.90
22852;DHT22;11592;45.460;9.240;2023-07-20T04:55:40;24.80;99.90
22852;DHT22;11592;45.460;9.240;2023-07-20T04:58:07;24.80;99.90
22852;DHT22;11592;45.460;9.240;2023-07-20T05:00:34;24.80;99.90
22852;DHT22;11592;45.460;9.240;2023-07-20T05:03:01;24.80;99.90
22852;DHT22;11592;45.460;9.240;2023-07-20T05:05:28;24.80;99.90
22852;DHT22;11592;45.460;9.240;2023-07-20T05:07:55;24.80;99.90
22852;DHT22;11592;45.460;9.240;2023-07-20T05:10:22;24.90;99.90
22852;DHT22;11592;45.460;9.240;2023-07-20T05:12:49;24.90;99.90
22852;DHT22;11592;45.460;9.240;2023-07-20T05:15:16;25.00;99.90
22852;DHT22;11592;45.460;9.240;2023-07-20T05:17:43;25.00;99.90
22852;DHT22;11592;45.460;9.240;2023-07-20T05:20:10;25.10;99.90
22852;DHT22;11592;45.460;9.240;2023-07-20T05:22:37;25.10;99.90
22852;DHT22;11592;45.460;9.240;2023-07-20T05:25:08;25.10;99.90
22852;DHT22;11592;45.460;9.240;2023-07-20T05:27:37;25.20;99.90
22852;DHT22;11592;45.460;9.240;2023-07-20T05:30:04;25.20;99.90
22852;DHT22;11592;45.460;9.240;2023-07-20T05:32:31;25.20;99.90
22852;DHT22;11592;45.460;9.240;2023-07-20T05:34:58;25.10;99.90
22852;DHT22;11592;45.460;9.240;2023-07-20T05:37:25;25.20;99.90
22852;DHT22;11592;45.460;9.240;2023-07-20T05:39:52;25.20;99.90
22852;DHT22;11592;45.460;9.240;2023-07-20T05:42:19;25.30;99.90
22852;DHT22;11592;45.460;9.240;2023-07-20T05:44:46;25.30;99.90
22852;DHT22;11592;45.460;9.240;2023-07-20T05:47:14;25.40;99.90
22852;DHT22;11592;45.460;9.240;2023-07-20T05:49:41;25.30;99.90
22852;DHT22;11592;45.460;9.240;2023-07-20T05:52:08;25.50;99.90
22852;DHT22;11592;45.460;9.240;2023-07-20T05:54:35;25.70;99.90
22852;DHT22;11592;45.460;9.240;2023-07-20T05:57:02;25.80;99.90
22852;DHT22;11592;45.460;9.240;2023-07-20T05:59:28;25.90;99.90
22852;DHT22;11592;45.460;9.240;2023-07-20T06:01:56;25.90;99.90
22852;DHT22;11592;45.460;9.240;2023-07-20T06:04:23;25.90;99.90
22852;DHT22;11592;45.460;9.240;2023-07-20T06:06:49;26.00;99.90
22852;DHT22;11592;45.460;9.240;2023-07-20T06:09:16;26.10;99.90
22852;DHT22;11592;45.460;9.240;2023-07-20T06:11:43;26.00;99.90
22852;DHT22;11592;45.460;9.240;2023-07-20T06:14:10;25.80;99.90
22852;DHT22;11592;45.460;9.240;2023-07-20T06:16:37;25.90;99.90
22852;DHT22;11592;45.460;9.240;2023-07-20T06:19:04;26.10;99.90
22852;DHT22;11592;45.460;9.240;2023-07-20T06:21:31;26.10;99.90
22852;DHT22;11592;45.460;9.240;2023-07-20T06:23:58;26.20;99.90
22852;DHT22;11592;45.460;9.240;2023-07-20T06:26:25;26.30;99.90
22852;DHT22;11592;45.460;9.240;2023-07-20T06:28:52;26.30;99.90
22852;DHT22;11592;45.460;9.240;2023-07-20T06:31:19;26.40;99.90
22852;DHT22;11592;45.460;9.240;2023-07-20T06:33:46;26.40;99.90
22852;DHT22;11592;45.460;9.240;2023-07-20T06:36:13;26.50;99.90
22852;DHT22;11592;45.460;9.240;2023-07-20T06:38:41;26.70;99.90
22852;DHT22;11592;45.460;9.240;2023-07-20T06:41:27;26.80;99.90
22852;DHT22;11592;45.460;9.240;2023-07-20T06:43:57;26.30;99.90
22852;DHT22;11592;45.460;9.240;2023-07-20T06:46:28;26.30;99.90
22852;DHT22;11592;45.460;9.240;2023-07-20T06:48:55;26.50;99.90
22852;DHT22;11592;45.460;9.240;2023-07-20T06:51:25;26.70;99.90
22852;DHT22;11592;45.460;9.240;2023-07-20T06:53:52;27.00;99.90
22852;DHT22;11592;45.460;9.240;2023-07-20T06:56:19;27.10;99.90
22852;DHT22;11592;45.460;9.240;2023-07-20T06:58:50;27.10;99.90
22852;DHT22;11592;45.460;9.240;2023-07-20T07:01:17;27.00;99.90
22852;DHT22;11592;45.460;9.240;2023-07-20T07:03:44;27.00;99.90
22852;DHT22;11592;45.460;9.240;2023-07-20T07:06:10;27.00;99.90
22852;DHT22;11592;45.460;9.240;2023-07-20T07:08:37;26.90;99.90
22852;DHT22;11592;45.460;9.240;2023-07-20T07:11:04;26.90;99.90
22852;DHT22;11592;45.460;9.240;2023-07-20T07:13:32;27.00;99.90
22852;DHT22;11592;45.460;9.240;2023-07-20T07:15:59;26.90;99.90
22852;DHT22;11592;45.460;9.240;2023-07-20T07:18:26;27.00;99.90
22852;DHT22;11592;45.460;9.240;2023-07-20T07:20:53;27.20;99.90
22852;DHT22;11592;45.460;9.240;2023-07-20T07:23:20;27.10;99.90
22852;DHT22;11592;45.460;9.240;2023-07-20T07:25:47;26.90;99.90
22852;DHT22;11592;45.460;9.240;2023-07-20T07:28:14;26.90;99.90
22852;DHT22;11592;45.460;9.240;2023-07-20T07:30:41;26.80;99.90
22852;DHT22;11592;45.460;9.240;2023-07-20T07:33:08;27.00;99.90
22852;DHT22;11592;45.460;9.240;2023-07-20T07:35:36;27.10;99.90
22852;DHT22;11592;45.460;9.240;2023-07-20T07:38:03;27.40;99.90
22852;DHT22;11592;45.460;9.240;2023-07-20T07:40:50;27.60;99.90
22852;DHT22;11592;45.460;9.240;2023-07-20T07:43:17;27.50;99.90
22852;DHT22;11592;45.460;9.240;2023-07-20T07:45:44;27.40;99.90
22852;DHT22;11592;45.460;9.240;2023-07-20T07:48:11;27.70;99.90
22852;DHT22;11592;45.460;9.240;2023-07-20T07:50:39;27.60;99.90
22852;DHT22;11592;45.460;9.240;2023-07-20T07:53:08;27.60;99.90
22852;DHT22;11592;45.460;9.240;2023-07-20T07:55:35;27.60;99.90
22852;DHT22;11592;45.460;9.240;2023-07-20T07:58:02;27.60;99.90
22852;DHT22;11592;45.460;9.240;2023-07-20T08:00:29;27.40;99.90
22852;DHT22;11592;45.460;9.240;2023-07-20T08:02:56;27.40;99.90
22852;DHT22;11592;45.460;9.240;2023-07-20T08:05:23;27.50;99.90
22852;DHT22;11592;45.460;9.240;2023-07-20T08:07:49;27.50;99.90
22852;DHT22;11592;45.460;9.240;2023-07-20T08:10:16;27.50;99.90
22852;DHT22;11592;45.460;9.240;2023-07-20T08:12:43;27.40;99.90
22852;DHT22;11592;45.460;9.240;2023-07-20T08:15:11;27.60;99.90
22852;DHT22;11592;45.460;9.240;2023-07-20T08:17:40;27.80;99.90
22852;DHT22;11592;45.460;9.240;2023-07-20T08:20:08;27.80;99.90
22852;DHT22;11592;45.460;9.240;2023-07-20T08:22:38;27.70;99.90
22852;DHT22;11592;45.460;9.240;2023-07-20T08:25:06;27.60;99.90
22852;DHT22;11592;45.460;9.240;2023-07-20T08:27:33;27.90;99.90
22852;DHT22;11592;45.460;9.240;2023-07-20T08:30:01;27.90;99.90
22852;DHT22;11592;45.460;9.240;2023-07-20T08:32:27;28.10;99.90
22852;DHT22;11592;45.460;9.240;2023-07-20T08:34:55;28.20;99.90
22852;DHT22;11592;45.460;9.240;2023-07-20T08:37:22;28.40;99.90
22852;DHT22;11592;45.460;9.240;2023-07-20T08:39:49;28.40;99.90
22852;DHT22;11592;45.460;9.240;2023-07-20T08:42:17;28.70;99.90
22852;DHT22;11592;45.460;9.240;2023-07-20T08:44:45;28.90;99.90
22852;DHT22;11592;45.460;9.240;2023-07-20T08:47:14;28.80;99.90
22852;DHT22;11592;45.460;9.240;2023-07-20T08:49:42;28.90;99.90
22852;DHT22;11592;45.460;9.240;2023-07-20T08:52:10;29.10;99.90
22852;DHT22;11592;45.460;9.240;2023-07-20T08:54:37;29.00;99.90
22852;DHT22;11592;45.460;9.240;2023-07-20T08:57:05;28.80;99.90
22852;DHT22;11592;45.460;9.240;2023-07-20T08:59:33;28.90;99.90
22852;DHT22;11592;45.460;9.240;2023-07-20T09:02:02;29.20;99.90
22852;DHT22;11592;45.460;9.240;2023-07-20T09:04:30;29.20;99.90
22852;DHT22;11592;45.460;9.240;2023-07-20T09:06:58;29.30;99.90
22852;DHT22;11592;45.460;9.240;2023-07-20T09:09:25;29.20;99.90
22852;DHT22;11592;45.460;9.240;2023-07-20T09:11:52;29.00;99.90
22852;DHT22;11592;45.460;9.240;2023-07-20T09:14:18;29.30;99.90
22852;DHT22;11592;45.460;9.240;2023-07-20T09:16:55;29.30;99.90
22852;DHT22;11592;45.460;9.240;2023-07-20T09:19:23;29.40;99.90
22852;DHT22;11592;45.460;9.240;2023-07-20T09:21:51;29.40;99.90
22852;DHT22;11592;45.460;9.240;2023-07-20T09:24:19;29.50;99.90
22852;DHT22;11592;45.460;9.240;2023-07-20T09:26:48;29.70;99.90
22852;DHT22;11592;45.460;9.240;2023-07-20T09:29:18;29.70;99.90
22852;DHT22;11592;45.460;9.240;2023-07-20T09:31:59;29.80;99.90
22852;DHT22;11592;45.460;9.240;2023-07-20T09:34:31;29.90;99.90
22852;DHT22;11592;45.460;9.240;2023-07-20T09:37:02;30.20;99.90
22852;DHT22;11592;45.460;9.240;2023-07-20T09:39:29;30.30;99.90
22852;DHT22;11592;45.460;9.240;2023-07-20T09:42:00;30.50;99.90
22852;DHT22;11592;45.460;9.240;2023-07-20T09:44:34;30.60;99.90
22852;DHT22;11592;45.460;9.240;2023-07-20T09:47:04;30.40;99.90
22852;DHT22;11592;45.460;9.240;2023-07-20T09:49:32;30.50;99.90
22852;DHT22;11592;45.460;9.240;2023-07-20T09:52:20;30.50;99.90
22852;DHT22;11592;45.460;9.240;2023-07-20T09:54:50;30.40;99.90
22852;DHT22;11592;45.460;9.240;2023-07-20T09:57:18;30.30;99.90
22852;DHT22;11592;45.460;9.240;2023-07-20T09:59:44;30.40;99.90
22852;DHT22;11592;45.460;9.240;2023-07-20T10:02:23;30.60;99.90
22852;DHT22;11592;45.460;9.240;2023-07-20T10:04:53;30.80;99.90
22852;DHT22;11592;45.460;9.240;2023-07-20T10:07:22;31.00;99.90
22852;DHT22;11592;45.460;9.240;2023-07-20T10:09:53;31.00;99.90
22852;DHT22;11592;45.460;9.240;2023-07-20T10:12:22;31.00;99.90
22852;DHT22;11592;45.460;9.240;2023-07-20T10:14:58;31.20;99.90
22852;DHT22;11592;45.460;9.240;2023-07-20T10:17:28;31.20;99.90
22852;DHT22;11592;45.460;9.240;2023-07-20T10:19:56;31.40;99.90
22852;DHT22;11592;45.460;9.240;2023-07-20T10:22:26;31.50;99.90
22852;DHT22;11592;45.460;9.240;2023-07-20T10:24:54;31.50;99.90
22852;DHT22;11592;45.460;9.240;2023-07-20T10:27:21;31.50;99.90
22852;DHT22;11592;45.460;9.240;2023-07-20T10:29:48;31.30;99.90
22852;DHT22;11592;45.460;9.240;2023-07-20T10:32:15;31.20;99.90
22852;DHT22;11592;45.460;9.240;2023-07-20T10:34:43;31.30;99.90
22852;DHT22;11592;45.460;9.240;2023-07-20T10:37:09;31.40;99.90
22852;DHT22;11592;45.460;9.240;2023-07-20T10:39:36;31.40;99.90
22852;DHT22;11592;45.460;9.240;2023-07-20T10:42:12;31.80;99.90
22852;DHT22;11592;45.460;9.240;2023-07-20T10:44:40;31.90;99.90
22852;DHT22;11592;45.460;9.240;2023-07-20T10:47:11;32.20;99.90
22852;DHT22;11592;45.460;9.240;2023-07-20T10:49:58;32.00;99.90
22852;DHT22;11592;45.460;9.240;2023-07-20T10:52:37;31.90;99.90
22852;DHT22;11592;45.460;9.240;2023-07-20T10:55:14;32.00;99.90
22852;DHT22;11592;45.460;9.240;2023-07-20T10:57:41;32.00;99.90
22852;DHT22;11592;45.460;9.240;2023-07-20T11:00:13;32.10;99.90
22852;DHT22;11592;45.460;9.240;2023-07-20T11:02:45;32.20;99.90
22852;DHT22;11592;45.460;9.240;2023-07-20T11:05:33;32.50;99.90
22852;DHT22;11592;45.460;9.240;2023-07-20T11:08:04;32.80;99.90
22852;DHT22;11592;45.460;9.240;2023-07-20T11:10:32;32.90;99.90
22852;DHT22;11592;45.460;9.240;2023-07-20T11:18:25;32.50;99.90
22852;DHT22;11592;45.460;9.240;2023-07-20T11:20:53;32.80;99.90
22852;DHT22;11592;45.460;9.240;2023-07-20T11:23:20;33.00;99.90
22852;DHT22;11592;45.460;9.240;2023-07-20T11:25:48;32.80;99.90
22852;DHT22;11592;45.460;9.240;2023-07-20T11:28:15;32.50;99.90
22852;DHT22;11592;45.460;9.240;2023-07-20T11:30:42;32.40;99.90
22852;DHT22;11592;45.460;9.240;2023-07-20T11:33:09;32.60;99.90
22852;DHT22;11592;45.460;9.240;2023-07-20T11:35:45;32.70;99.90
22852;DHT22;11592;45.460;9.240;2023-07-20T11:38:15;32.60;99.90
22852;DHT22;11592;45.460;9.240;2023-07-20T11:40:43;32.70;99.90
22852;DHT22;11592;45.460;9.240;2023-07-20T11:43:14;32.80;99.90
22852;DHT22;11592;45.460;9.240;2023-07-20T11:45:45;33.00;99.90
22852;DHT22;11592;45.460;9.240;2023-07-20T11:48:16;33.40;99.90
22852;DHT22;11592;45.460;9.240;2023-07-20T11:50:43;33.20;99.90
22852;DHT22;11592;45.460;9.240;2023-07-20T11:53:10;33.30;99.90
22852;DHT22;11592;45.460;9.240;2023-07-20T11:55:39;33.60;99.90
22852;DHT22;11592;45.460;9.240;2023-07-20T11:58:08;33.90;99.90
22852;DHT22;11592;45.460;9.240;2023-07-20T12:00:36;34.00;99.90
22852;DHT22;11592;45.460;9.240;2023-07-20T12:03:05;34.20;99.90
22852;DHT22;11592;45.460;9.240;2023-07-20T12:05:38;34.30;99.90
22852;DHT22;11592;45.460;9.240;2023-07-20T12:08:25;33.90;99.90
22852;DHT22;11592;45.460;9.240;2023-07-20T12:10:52;34.00;99.90
22852;DHT22;11592;45.460;9.240;2023-07-20T12:13:19;33.80;99.90
22852;DHT22;11592;45.460;9.240;2023-07-20T12:15:46;33.80;99.90
22852;DHT22;11592;45.460;9.240;2023-07-20T12:18:13;34.20;99.90
22852;DHT22;11592;45.460;9.240;2023-07-20T12:20:40;34.20;99.90
22852;DHT22;11592;45.460;9.240;2023-07-20T12:23:13;34.50;99.90
22852;DHT22;11592;45.460;9.240;2023-07-20T12:25:45;34.80;99.90
22852;DHT22;11592;45.460;9.240;2023-07-20T12:28:14;34.70;99.90
22852;DHT22;11592;45.460;9.240;2023-07-20T12:30:44;34.80;99.90
22852;DHT22;11592;45.460;9.240;2023-07-20T12:33:11;34.70;99.90
22852;DHT22;11592;45.460;9.240;2023-07-20T12:35:40;34.80;99.90
22852;DHT22;11592;45.460;9.240;2023-07-20T12:38:07;34.80;99.90
22852;DHT22;11592;45.460;9.240;2023-07-20T12:40:35;35.00;99.90
22852;DHT22;11592;45.460;9.240;2023-07-20T12:43:02;34.90;99.90
22852;DHT22;11592;45.460;9.240;2023-07-20T12:45:31;35.10;99.90
22852;DHT22;11592;45.460;9.240;2023-07-20T12:47:58;35.40;99.90
22852;DHT22;11592;45.460;9.240;2023-07-20T12:50:26;35.40;99.90
22852;DHT22;11592;45.460;9.240;2023-07-20T12:52:53;35.30;99.90
22852;DHT22;11592;45.460;9.240;2023-07-20T12:55:20;35.60;99.90
22852;DHT22;11592;45.460;9.240;2023-07-20T12:57:47;36.10;99.90
22852;DHT22;11592;45.460;9.240;2023-07-20T13:00:14;36.30;99.90
22852;DHT22;11592;45.460;9.240;2023-07-20T13:02:41;36.50;99.90
22852;DHT22;11592;45.460;9.240;2023-07-20T13:05:09;36.50;99.90
22852;DHT22;11592;45.460;9.240;2023-07-20T13:07:38;36.80;99.90
22852;DHT22;11592;45.460;9.240;2023-07-20T13:10:10;37.10;99.90
22852;DHT22;11592;45.460;9.240;2023-07-20T13:12:37;37.10;99.90
22852;DHT22;11592;45.460;9.240;2023-07-20T13:15:09;37.10;99.90
22852;DHT22;11592;45.460;9.240;2023-07-20T13:17:37;37.10;99.70
22852;DHT22;11592;45.460;9.240;2023-07-20T13:20:06;37.00;99.90
22852;DHT22;11592;45.460;9.240;2023-07-20T13:22:34;37.20;99.90
22852;DHT22;11592;45.460;9.240;2023-07-20T13:25:02;37.40;99.70
22852;DHT22;11592;45.460;9.240;2023-07-20T13:27:29;36.90;99.90
22852;DHT22;11592;45.460;9.240;2023-07-20T13:29:59;36.80;99.50
22852;DHT22;11592;45.460;9.240;2023-07-20T13:32:29;36.70;99.90
22852;DHT22;11592;45.460;9.240;2023-07-20T13:35:00;37.20;99.50
22852;DHT22;11592;45.460;9.240;2023-07-20T13:37:27;37.30;99.90
22852;DHT22;11592;45.460;9.240;2023-07-20T13:39:54;37.80;99.90
22852;DHT22;11592;45.460;9.240;2023-07-20T13:42:23;38.20;99.90
22852;DHT22;11592;45.460;9.240;2023-07-20T13:44:49;38.00;98.30
22852;DHT22;11592;45.460;9.240;2023-07-20T13:47:16;37.60;99.00
22852;DHT22;11592;45.460;9.240;2023-07-20T13:49:46;37.90;99.90
22852;DHT22;11592;45.460;9.240;2023-07-20T13:52:14;38.00;97.90
22852;DHT22;11592;45.460;9.240;2023-07-20T13:54:44;37.70;99.00
22852;DHT22;11592;45.460;9.240;2023-07-20T13:57:16;38.10;99.40
22852;DHT22;11592;45.460;9.240;2023-07-20T13:59:44;38.50;98.20
22852;DHT22;11592;45.460;9.240;2023-07-20T14:02:11;38.70;96.40
22852;DHT22;11592;45.460;9.240;2023-07-20T14:04:41;38.90;96.00
22852;DHT22;11592;45.460;9.240;2023-07-20T14:07:08;39.30;99.50
22852;DHT22;11592;45.460;9.240;2023-07-20T14:09:35;39.80;97.50
22852;DHT22;11592;45.460;9.240;2023-07-20T14:12:03;40.00;95.40
22852;DHT22;11592;45.460;9.240;2023-07-20T14:14:33;40.40;96.80
22852;DHT22;11592;45.460;9.240;2023-07-20T14:17:00;40.30;94.50
22852;DHT22;11592;45.460;9.240;2023-07-20T14:19:26;40.70;95.90
22852;DHT22;11592;45.460;9.240;2023-07-20T14:21:53;40.80;93.50
22852;DHT22;11592;45.460;9.240;2023-07-20T14:24:21;40.40;92.90
22852;DHT22;11592;45.460;9.240;2023-07-20T14:26:48;40.60;94.00
22852;DHT22;11592;45.460;9.240;2023-07-20T14:29:18;41.00;94.60
22852;DHT22;11592;45.460;9.240;2023-07-20T14:31:45;41.10;94.60
22852;DHT22;11592;45.460;9.240;2023-07-20T14:34:18;41.50;92.50
22852;DHT22;11592;45.460;9.240;2023-07-20T14:36:45;40.90;91.90
22852;DHT22;11592;45.460;9.240;2023-07-20T14:39:12;40.70;93.50
22852;DHT22;11592;45.460;9.240;2023-07-20T14:41:39;40.80;93.00
22852;DHT22;11592;45.460;9.240;2023-07-20T14:44:06;41.10;93.10
22852;DHT22;11592;45.460;9.240;2023-07-20T14:46:32;41.00;92.60
22852;DHT22;11592;45.460;9.240;2023-07-20T14:49:00;40.90;91.10
22852;DHT22;11592;45.460;9.240;2023-07-20T14:51:27;40.70;91.30
22852;DHT22;11592;45.460;9.240;2023-07-20T14:54:01;40.80;92.00
22852;DHT22;11592;45.460;9.240;2023-07-20T14:56:28;40.80;91.50
22852;DHT22;11592;45.460;9.240;2023-07-20T14:58:55;40.70;91.00
22852;DHT22;11592;45.460;9.240;2023-07-20T15:01:24;40.30;92.90
22852;DHT22;11592;45.460;9.240;2023-07-20T15:03:51;40.10;90.70
22852;DHT22;11592;45.460;9.240;2023-07-20T15:06:23;39.90;90.80
22852;DHT22;11592;45.460;9.240;2023-07-20T15:08:52;39.70;90.90
22852;DHT22;11592;45.460;9.240;2023-07-20T15:11:19;39.50;89.90
22852;DHT22;11592;45.460;9.240;2023-07-20T15:13:45;38.50;91.20
22852;DHT22;11592;45.460;9.240;2023-07-20T15:16:12;38.50;92.70
22852;DHT22;11592;45.460;9.240;2023-07-20T15:18:39;38.50;91.60
22852;DHT22;11592;45.460;9.240;2023-07-20T15:21:15;38.10;94.10
22852;DHT22;11592;45.460;9.240;2023-07-20T15:23:43;38.20;93.70
22852;DHT22;11592;45.460;9.240;2023-07-20T15:26:10;38.20;94.10
22852;DHT22;11592;45.460;9.240;2023-07-20T15:28:38;38.10;94.30
22852;DHT22;11592;45.460;9.240;2023-07-20T15:31:05;38.10;93.70
22852;DHT22;11592;45.460;9.240;2023-07-20T15:33:32;37.90;94.20
22852;DHT22;11592;45.460;9.240;2023-07-20T15:35:59;37.80;95.50
22852;DHT22;11592;45.460;9.240;2023-07-20T15:38:25;37.60;94.60
22852;DHT22;11592;45.460;9.240;2023-07-20T15:40:53;37.40;94.90
22852;DHT22;11592;45.460;9.240;2023-07-20T15:43:22;37.40;94.80
22852;DHT22;11592;45.460;9.240;2023-07-20T15:45:49;37.30;94.40
22852;DHT22;11592;45.460;9.240;2023-07-20T15:48:18;37.30;94.30
22852;DHT22;11592;45.460;9.240;2023-07-20T15:50:49;37.20;94.60
22852;DHT22;11592;45.460;9.240;2023-07-20T15:53:16;37.20;96.40
22852;DHT22;11592;45.460;9.240;2023-07-20T15:55:43;37.20;95.80
22852;DHT22;11592;45.460;9.240;2023-07-20T15:58:10;37.20;93.70
22852;DHT22;11592;45.460;9.240;2023-07-20T16:00:37;37.10;94.10